Portada
METAR-TAF:

METAR-TAF

Aeroports :

Ubon Ratchathani, Tailàndia

latitud: 15-15N, longitud: 104-52E, altitud: 123 m

Observació

L'informe es va fer fa 2 hores i 46 minuts, a les 01:00 UTC
Vent 4 kt del Sud-Est, variant entre Est i Oest/Sud-Oest
Temperatura 27°C
Humitat 74%
Pressió 1014 hPa
Visibilitat: 5000 m
boirina

METAR: VTUU 010100Z 14004KT 080V250 5000 BR NSC 27/22 Q1014 NOSIG

Hora: 10:46 (03:46 UTC)

Pronòstic

L'informe es va fer fa 4 hores i 46 minuts, a les 23:00 UTC
Pronòstic vàlid del 01 a les 00 UTC al 01 a les 24 UTC
Vent 5 kt del Sud/Sud-Est
Visibilitat: 9000 m

TAF: VTUU 282300Z 0100/0124 16005KT 9000 NSC

Observacions i pronòstics meteorològics de més de 4000 aeroports (METAR i TAF).

Les estacions disponibles són els punts grocs i vermells al mapa.

Posi el ratolí al punt desitjat per veure el nom de l'estació.

Feu clic per veure les observacions i els pronòstics meteorològics.

Per canviar el mapa: feu clic els botons verds amb una creu de color negre per apropar; al botó verd amb un guió per allunyar la imatge; o en les fletxes verdes per a mapes adjacents.


METAR-TAF: